Time;durP1;ratioP1;P1;durP2;ratioP2;P2;SDS_P1;SDS_P2;PMS_P1;PMS_P2;Temp;Humidity;BMP_temperature;BMP_pressure;BME280_temperature;BME280_humidity;BME280_pressure;Samples;Min_cycle;Max_cycle;Signal;HPM_P1;HPM_P2
2023/07/06 00:00:32;;;;;;;3.53;2.03;;;26.70;46.60;;;;;;4997379;28;92476;-51
2023/07/06 00:03:00;;;;;;;2.43;1.50;;;26.70;46.70;;;;;;4996277;28;94127;-51
2023/07/06 00:05:30;;;;;;;4.80;2.50;;;26.70;46.70;;;;;;4994774;28;93781;-51
2023/07/06 00:07:58;;;;;;;3.13;1.87;;;26.70;46.80;;;;;;4993915;28;92043;-51
2023/07/06 00:10:26;;;;;;;2.50;2.30;;;26.70;46.70;;;;;;5001196;28;92176;-50
2023/07/06 00:12:57;;;;;;;4.77;1.70;;;26.60;46.70;;;;;;4993700;28;93289;-51
2023/07/06 00:15:27;;;;;;;5.47;1.83;;;26.70;46.70;;;;;;4989391;28;93782;-51
2023/07/06 00:17:55;;;;;;;3.60;1.87;;;26.70;46.70;;;;;;4984514;28;92261;-51
2023/07/06 00:20:23;;;;;;;3.60;1.60;;;26.60;46.70;;;;;;4984674;28;91337;-50
2023/07/06 00:22:54;;;;;;;2.33;1.23;;;26.60;47.30;;;;;;4989834;28;93242;-51
2023/07/06 00:25:25;;;;;;;5.17;1.57;;;26.60;46.70;;;;;;4998252;28;93961;-51
2023/07/06 00:27:54;;;;;;;1.73;1.00;;;26.60;46.70;;;;;;4999324;28;92971;-51
2023/07/06 00:30:40;;;;;;;1.47;1.00;;;26.50;46.60;;;;;;4997684;28;92062;-51
2023/07/06 00:33:08;;;;;;;2.57;1.30;;;26.50;46.60;;;;;;4981472;28;92944;-51
2023/07/06 00:35:36;;;;;;;2.10;1.20;;;26.50;46.60;;;;;;4979275;28;92807;-53
2023/07/06 00:38:09;;;;;;;1.40;0.90;;;26.50;46.60;;;;;;4979585;28;91871;-53
2023/07/06 00:40:38;;;;;;;4.80;1.50;;;26.50;46.70;;;;;;4979181;28;92081;-51
2023/07/06 00:43:09;;;;;;;2.47;1.50;;;26.60;46.70;;;;;;4984064;28;92766;-52
2023/07/06 00:45:37;;;;;;;3.70;1.40;;;26.60;46.70;;;;;;4999486;28;94073;-52
2023/07/06 00:48:10;;;;;;;4.47;2.10;;;26.60;46.80;;;;;;4998641;28;91999;-53
2023/07/06 00:50:38;;;;;;;3.20;1.47;;;26.70;46.90;;;;;;4992543;28;93585;-52
2023/07/06 00:53:08;;;;;;;5.67;1.40;;;26.80;46.90;;;;;;4992812;28;95232;-52
2023/07/06 00:55:40;;;;;;;1.50;1.20;;;26.80;46.90;;;;;;4978624;28;93389;-52
2023/07/06 00:58:12;;;;;;;2.80;1.50;;;26.90;46.90;;;;;;4991470;28;91865;-52
2023/07/06 01:00:40;;;;;;;2.33;1.40;;;26.80;46.80;;;;;;4990816;28;92184;-52
2023/07/06 01:03:08;;;;;;;1.90;1.37;;;26.90;46.90;;;;;;4998595;28;93082;-52
2023/07/06 01:05:38;;;;;;;5.07;1.30;;;26.80;46.90;;;;;;4996080;28;92687;-52
2023/07/06 01:08:11;;;;;;;5.03;1.83;;;26.80;47.00;;;;;;4996554;28;91918;-52
2023/07/06 01:10:39;;;;;;;6.57;1.47;;;26.70;47.00;;;;;;4993273;28;92114;-52
2023/07/06 01:13:08;;;;;;;6.57;1.27;;;26.70;47.00;;;;;;4997780;28;94246;-52
2023/07/06 01:15:41;;;;;;;1.10;1.00;;;26.70;47.00;;;;;;4991581;28;93269;-52
2023/07/06 01:18:14;;;;;;;2.07;1.00;;;26.60;47.00;;;;;;4996086;28;93037;-51
2023/07/06 01:20:44;;;;;;;1.20;1.03;;;26.60;47.10;;;;;;4990052;28;92074;-52
2023/07/06 01:23:47;;;;;;;1.90;1.10;;;26.60;47.10;;;;;;4986406;28;93206;-52
2023/07/06 01:26:25;;;;;;;1.87;1.00;;;26.50;47.10;;;;;;4990779;28;92908;-52
2023/07/06 01:29:16;;;;;;;2.37;1.40;;;26.60;47.20;;;;;;4991717;28;91959;-52
2023/07/06 01:31:47;;;;;;;1.53;1.13;;;26.50;47.20;;;;;;4990877;28;91979;-52
2023/07/06 01:34:20;;;;;;;3.40;1.27;;;26.50;47.20;;;;;;4982025;28;93221;-52
2023/07/06 01:36:51;;;;;;;2.33;1.47;;;26.50;47.30;;;;;;4980148;28;92805;-52
2023/07/06 01:39:20;;;;;;;3.23;1.33;;;26.50;47.30;;;;;;4991269;28;92101;-52
2023/07/06 01:42:26;;;;;;;3.57;1.30;;;26.50;47.30;;;;;;4978172;28;92101;-52
2023/07/06 01:44:56;;;;;;;2.13;1.37;;;26.50;47.40;;;;;;4983825;28;94083;-52
2023/07/06 01:47:26;;;;;;;3.03;2.00;;;26.50;47.30;;;;;;4984224;28;94911;-52
2023/07/06 01:49:54;;;;;;;3.30;1.30;;;26.50;47.40;;;;;;4996180;28;92051;-52
2023/07/06 01:52:27;;;;;;;2.60;1.50;;;26.40;47.40;;;;;;4989400;28;92240;-52
2023/07/06 01:54:58;;;;;;;2.13;1.40;;;26.40;47.40;;;;;;4989067;28;94261;-52
2023/07/06 01:57:29;;;;;;;2.67;1.17;;;26.40;47.40;;;;;;4978201;28;92856;-52
2023/07/06 01:59:58;;;;;;;4.50;1.40;;;26.40;47.40;;;;;;4984321;28;92110;-52
2023/07/06 02:02:30;;;;;;;3.23;1.40;;;26.40;47.40;;;;;;4997444;28;91400;-52
2023/07/06 02:05:00;;;;;;;3.20;2.43;;;26.40;48.10;;;;;;4997620;28;91873;-52
2023/07/06 02:07:31;;;;;;;2.73;1.70;;;26.40;47.40;;;;;;4997639;28;94336;-52
2023/07/06 02:09:59;;;;;;;2.27;1.17;;;26.40;47.50;;;;;;4996521;28;93038;-52
2023/07/06 02:12:28;;;;;;;2.90;1.53;;;26.40;47.50;;;;;;4990106;28;92071;-52
2023/07/06 02:14:56;;;;;;;2.10;1.67;;;26.40;47.50;;;;;;4987744;28;94439;-52
2023/07/06 02:17:24;;;;;;;3.50;1.50;;;26.40;47.50;;;;;;4997675;28;93871;-52
2023/07/06 02:19:53;;;;;;;2.90;1.87;;;26.40;48.20;;;;;;4998147;28;92189;-52
2023/07/06 02:22:21;;;;;;;4.07;1.70;;;26.40;47.60;;;;;;4994968;28;92055;-52
2023/07/06 02:24:49;;;;;;;3.87;2.43;;;26.40;47.60;;;;;;4997698;28;94186;-52
2023/07/06 02:27:17;;;;;;;4.90;2.17;;;26.40;47.60;;;;;;4983802;28;93920;-52
2023/07/06 02:29:45;;;;;;;3.03;1.97;;;26.30;47.60;;;;;;4984921;28;91965;-52
2023/07/06 02:32:15;;;;;;;5.03;2.23;;;26.40;48.30;;;;;;4990927;28;92079;-51
2023/07/06 02:34:43;;;;;;;1.90;1.70;;;26.30;47.60;;;;;;4977029;28;94215;-52
2023/07/06 02:37:12;;;;;;;2.13;1.90;;;26.30;47.60;;;;;;4990197;28;93812;-52
2023/07/06 02:39:41;;;;;;;2.50;2.03;;;26.30;47.60;;;;;;4997602;28;91952;-52
2023/07/06 02:42:14;;;;;;;3.97;2.30;;;26.30;48.30;;;;;;4993461;28;92518;-52
2023/07/06 02:44:43;;;;;;;3.20;2.03;;;26.30;47.70;;;;;;4984159;28;93031;-52
2023/07/06 02:47:11;;;;;;;2.37;1.90;;;26.30;47.70;;;;;;4994381;28;93939;-52
2023/07/06 02:49:39;;;;;;;5.03;2.63;;;26.30;47.70;;;;;;4994243;28;92141;-52
2023/07/06 02:52:08;;;;;;;5.70;2.47;;;26.30;48.40;;;;;;4994115;28;91359;-52
2023/07/06 02:54:38;;;;;;;3.27;1.93;;;26.30;47.70;;;;;;4988746;28;94267;-52
2023/07/06 02:57:07;;;;;;;3.87;2.20;;;26.30;47.80;;;;;;4994037;28;92889;-52
2023/07/06 02:59:35;;;;;;;2.80;2.27;;;26.20;47.70;;;;;;4992391;28;93104;-52
2023/07/06 03:02:03;;;;;;;5.80;2.87;;;26.30;47.80;;;;;;4994353;28;92121;-52
2023/07/06 03:04:32;;;;;;;3.47;2.13;;;26.20;48.40;;;;;;4986056;28;94135;-52
2023/07/06 03:07:00;;;;;;;2.97;2.27;;;26.20;47.80;;;;;;4993714;28;92751;-52
2023/07/06 03:09:29;;;;;;;4.07;2.57;;;26.20;47.80;;;;;;4994799;28;92022;-52
2023/07/06 03:11:58;;;;;;;6.27;2.53;;;26.20;47.80;;;;;;4992913;28;92128;-52
2023/07/06 03:14:26;;;;;;;2.67;2.13;;;26.20;47.80;;;;;;4990821;28;94395;-51
2023/07/06 03:16:55;;;;;;;2.87;2.10;;;26.20;47.80;;;;;;4989810;28;93944;-52
2023/07/06 03:19:23;;;;;;;4.87;2.13;;;26.20;47.80;;;;;;4995752;28;92094;-52
2023/07/06 03:21:52;;;;;;;4.37;2.20;;;26.20;47.80;;;;;;4997708;28;92289;-52
2023/07/06 03:24:20;;;;;;;4.73;2.20;;;26.20;47.80;;;;;;4996640;28;94433;-52
2023/07/06 03:26:48;;;;;;;3.27;2.13;;;26.20;47.80;;;;;;4982277;28;94611;-52
2023/07/06 03:29:17;;;;;;;4.13;2.47;;;26.20;47.90;;;;;;4978187;28;92588;-52
2023/07/06 03:31:46;;;;;;;2.50;1.97;;;26.20;47.90;;;;;;4996716;28;92126;-52
2023/07/06 03:34:14;;;;;;;6.13;2.60;;;26.20;47.90;;;;;;4994819;28;94127;-52
2023/07/06 03:36:42;;;;;;;4.70;2.07;;;26.20;47.90;;;;;;4996761;28;93983;-52
2023/07/06 03:39:12;;;;;;;2.83;2.13;;;26.20;47.90;;;;;;4997532;28;92080;-52
2023/07/06 03:41:40;;;;;;;4.13;2.33;;;26.20;47.90;;;;;;4997280;28;91431;-52
2023/07/06 03:44:09;;;;;;;3.57;2.20;;;26.20;47.90;;;;;;4994991;28;94210;-52
2023/07/06 03:46:39;;;;;;;4.27;2.30;;;26.20;47.90;;;;;;4994881;28;92922;-52
2023/07/06 03:49:08;;;;;;;5.53;3.03;;;26.10;47.90;;;;;;4996823;28;93495;-52
2023/07/06 03:51:36;;;;;;;4.70;2.37;;;26.10;47.90;;;;;;4997490;28;91989;-52
2023/07/06 03:54:06;;;;;;;3.73;1.90;;;26.10;47.90;;;;;;4992220;28;93229;-52
2023/07/06 03:56:35;;;;;;;3.67;2.10;;;26.10;47.90;;;;;;4977212;28;93760;-52
2023/07/06 03:59:05;;;;;;;3.77;2.43;;;26.10;47.90;;;;;;4977504;28;92003;-52
2023/07/06 04:01:33;;;;;;;4.77;2.87;;;26.10;47.90;;;;;;4986684;28;92690;-52
2023/07/06 04:04:05;;;;;;;5.07;2.60;;;26.10;48.60;;;;;;4994671;28;93466;-51
2023/07/06 04:06:40;;;;;;;2.50;2.30;;;26.10;47.90;;;;;;4997028;28;93929;-52
2023/07/06 04:09:09;;;;;;;4.50;2.50;;;26.10;47.90;;;;;;4993275;28;92240;-52
2023/07/06 04:11:37;;;;;;;3.67;1.83;;;26.10;48.50;;;;;;4994778;28;92619;-52
2023/07/06 04:14:06;;;;;;;3.90;2.57;;;26.10;47.90;;;;;;4983060;28;94517;-51
2023/07/06 04:16:34;;;;;;;4.03;2.17;;;26.10;48.00;;;;;;4998374;28;93668;-52
2023/07/06 04:19:05;;;;;;;2.83;2.30;;;26.10;48.00;;;;;;4983780;28;92125;-52
2023/07/06 04:21:33;;;;;;;4.37;2.40;;;26.10;48.00;;;;;;4979735;28;91879;-52
2023/07/06 04:24:01;;;;;;;4.10;2.00;;;26.10;48.00;;;;;;4979457;28;93410;-52
2023/07/06 04:26:29;;;;;;;2.83;1.97;;;26.10;48.00;;;;;;4979338;28;93855;-52
2023/07/06 04:28:57;;;;;;;4.67;2.40;;;26.10;48.00;;;;;;4979309;28;92605;-52
2023/07/06 04:31:25;;;;;;;3.67;2.33;;;26.10;48.00;;;;;;4983319;28;91445;-52
2023/07/06 04:33:54;;;;;;;3.17;2.27;;;26.20;48.00;;;;;;4991259;28;93308;-52
2023/07/06 04:36:23;;;;;;;5.83;2.20;;;26.20;47.90;;;;;;4998085;28;93059;-51
2023/07/06 04:38:51;;;;;;;7.70;2.87;;;26.30;47.80;;;;;;4979552;28;93080;-52
2023/07/06 04:41:19;;;;;;;2.87;2.00;;;26.40;47.80;;;;;;4978976;28;92114;-52
2023/07/06 04:43:47;;;;;;;4.07;2.27;;;26.50;47.70;;;;;;4979120;28;93094;-52
2023/07/06 04:46:15;;;;;;;4.33;2.43;;;26.50;47.60;;;;;;4993706;28;92953;-52
2023/07/06 04:48:44;;;;;;;3.70;2.77;;;26.40;47.60;;;;;;4998893;28;91970;-52
2023/07/06 04:51:12;;;;;;;5.87;2.83;;;26.40;47.70;;;;;;4988234;28;92077;-52
2023/07/06 04:53:42;;;;;;;3.63;2.07;;;26.40;47.70;;;;;;4979182;28;94205;-52
2023/07/06 04:56:11;;;;;;;2.93;2.00;;;26.30;47.70;;;;;;4979090;28;92798;-52
2023/07/06 04:58:41;;;;;;;3.17;2.27;;;26.30;47.70;;;;;;4979149;28;92018;-51
2023/07/06 05:01:10;;;;;;;6.80;3.47;;;26.30;47.80;;;;;;4990774;28;92130;-51
2023/07/06 05:03:38;;;;;;;4.17;2.30;;;26.30;47.80;;;;;;4998163;28;94965;-52
2023/07/06 05:06:08;;;;;;;6.77;2.33;;;26.20;47.80;;;;;;4991587;28;94686;-52
2023/07/06 05:08:36;;;;;;;4.80;2.70;;;26.20;47.80;;;;;;4979276;28;91901;-52
2023/07/06 05:11:05;;;;;;;3.47;2.10;;;26.20;47.80;;;;;;4981450;28;92061;-52
2023/07/06 05:13:33;;;;;;;3.43;2.23;;;26.10;47.80;;;;;;4985301;28;94266;-51
2023/07/06 05:16:02;;;;;;;7.50;2.37;;;26.10;47.80;;;;;;4988335;28;92707;-52
2023/07/06 05:18:30;;;;;;;2.80;1.73;;;26.10;47.80;;;;;;4979212;28;91909;-52
2023/07/06 05:20:58;;;;;;;3.90;2.47;;;26.10;47.80;;;;;;4983662;28;91336;-51
2023/07/06 05:23:27;;;;;;;4.73;2.17;;;26.10;47.80;;;;;;4987321;28;93210;-52
2023/07/06 05:25:55;;;;;;;3.27;1.67;;;26.10;47.80;;;;;;4989801;28;93709;-52
2023/07/06 05:28:25;;;;;;;6.00;1.83;;;26.10;47.80;;;;;;4989904;28;93042;-53
2023/07/06 05:30:53;;;;;;;4.47;2.03;;;26.10;47.80;;;;;;4984773;28;92128;-52
2023/07/06 05:33:21;;;;;;;4.93;2.20;;;26.10;47.70;;;;;;4978477;28;93053;-52
2023/07/06 05:35:49;;;;;;;2.23;1.90;;;26.20;47.80;;;;;;4985491;28;92798;-52
2023/07/06 05:38:20;;;;;;;3.53;1.80;;;26.20;47.70;;;;;;4997025;28;92035;-52
2023/07/06 05:40:48;;;;;;;3.97;1.57;;;26.20;47.80;;;;;;4988225;28;92154;-51
2023/07/06 05:43:17;;;;;;;3.33;1.83;;;26.30;47.80;;;;;;4999169;28;93381;-52
2023/07/06 05:45:48;;;;;;;6.37;1.87;;;26.30;47.70;;;;;;4986094;28;92778;-52
2023/07/06 05:48:18;;;;;;;4.77;2.00;;;26.30;47.80;;;;;;4995498;28;92129;-52
2023/07/06 05:50:46;;;;;;;5.43;1.70;;;26.30;47.30;;;;;;4997614;28;92353;-52
2023/07/06 05:53:14;;;;;;;2.40;1.50;;;26.40;47.80;;;;;;4997701;28;95290;-52
2023/07/06 05:55:43;;;;;;;1.40;1.17;;;26.40;47.90;;;;;;4997924;28;93699;-52
2023/07/06 05:58:13;;;;;;;4.00;2.13;;;26.40;47.90;;;;;;4989231;28;92083;-52
2023/07/06 06:00:41;;;;;;;2.27;1.57;;;26.40;47.90;;;;;;4987880;28;92074;-52
2023/07/06 06:03:11;;;;;;;4.23;1.97;;;26.40;47.90;;;;;;4991521;28;93138;-52
2023/07/06 06:05:42;;;;;;;6.10;2.27;;;26.40;48.00;;;;;;4991284;28;92625;-52
2023/07/06 06:08:10;;;;;;;2.07;1.70;;;26.50;48.00;;;;;;4978319;28;91951;-52
2023/07/06 06:10:38;;;;;;;3.70;1.50;;;26.50;48.00;;;;;;4979586;28;91371;-52
2023/07/06 06:13:06;;;;;;;3.43;1.97;;;26.50;48.00;;;;;;4994521;28;92736;-56
2023/07/06 06:15:35;;;;;;;3.90;2.13;;;26.50;47.60;;;;;;4983212;28;94014;-56
2023/07/06 06:18:04;;;;;;;5.07;2.10;;;26.50;48.30;;;;;;4977950;28;92932;-56
2023/07/06 06:20:36;;;;;;;3.00;1.70;;;26.40;48.30;;;;;;4980278;28;92107;-56
2023/07/06 06:23:06;;;;;;;2.73;1.80;;;26.40;48.40;;;;;;4995530;28;92126;-57
2023/07/06 06:25:34;;;;;;;2.93;1.70;;;26.40;48.40;;;;;;4995988;28;93984;-56
2023/07/06 06:28:03;;;;;;;2.60;1.47;;;26.40;48.50;;;;;;4984911;28;92121;-56
2023/07/06 06:30:31;;;;;;;3.47;1.53;;;26.40;48.50;;;;;;4993186;28;92159;-56
2023/07/06 06:33:01;;;;;;;2.87;1.83;;;26.40;48.50;;;;;;4991463;28;93344;-56
2023/07/06 06:35:29;;;;;;;3.07;1.87;;;26.40;48.50;;;;;;4995818;28;93018;-56
2023/07/06 06:37:59;;;;;;;4.60;1.57;;;26.40;48.50;;;;;;4979047;28;92066;-55
2023/07/06 06:40:29;;;;;;;2.33;1.57;;;26.40;48.50;;;;;;4992206;28;93231;-56
2023/07/06 06:43:00;;;;;;;2.40;1.47;;;26.40;48.40;;;;;;4980989;28;95105;-56
2023/07/06 06:45:28;;;;;;;3.97;1.30;;;26.40;48.50;;;;;;4987883;28;93740;-56
2023/07/06 06:47:56;;;;;;;5.60;1.37;;;26.40;48.40;;;;;;4978220;28;91925;-56
2023/07/06 06:50:24;;;;;;;1.47;1.37;;;26.50;48.40;;;;;;4977683;28;92097;-56
2023/07/06 06:52:52;;;;;;;2.73;1.40;;;26.50;48.40;;;;;;4980048;28;93062;-55
2023/07/06 06:55:22;;;;;;;2.37;1.10;;;26.50;48.40;;;;;;4980753;28;93719;-56
2023/07/06 06:57:52;;;;;;;2.40;1.23;;;26.50;49.00;;;;;;4999390;28;92029;-56
2023/07/06 07:00:20;;;;;;;2.20;1.10;;;26.50;48.90;;;;;;5001454;28;91295;-56
2023/07/06 07:02:49;;;;;;;2.30;1.30;;;26.50;48.30;;;;;;4999704;28;91971;-56
2023/07/06 07:05:17;;;;;;;5.47;1.47;;;26.60;48.20;;;;;;4999253;28;92735;-56
2023/07/06 07:07:45;;;;;;;1.77;1.50;;;26.60;48.20;;;;;;4994046;28;93107;-55
2023/07/06 07:10:14;;;;;;;4.57;1.30;;;26.60;48.10;;;;;;4998142;28;92002;-56
2023/07/06 07:12:44;;;;;;;2.77;1.80;;;26.70;48.20;;;;;;4999970;28;93303;-56
2023/07/06 07:15:14;;;;;;;2.10;1.33;;;26.70;48.10;;;;;;4986018;28;94372;-55
2023/07/06 07:17:43;;;;;;;2.10;1.10;;;26.70;48.10;;;;;;4984317;28;92387;-56
2023/07/06 07:20:13;;;;;;;4.30;1.30;;;26.70;48.10;;;;;;4990270;28;92137;-58
2023/07/06 07:22:41;;;;;;;1.43;1.10;;;26.70;48.20;;;;;;4979402;28;93180;-59
2023/07/06 07:25:09;;;;;;;4.03;1.60;;;26.80;48.10;;;;;;4980859;28;92627;-58
2023/07/06 07:27:38;;;;;;;2.97;1.80;;;26.70;48.10;;;;;;4980712;28;92120;-58
2023/07/06 07:30:11;;;;;;;3.93;1.87;;;26.70;48.10;;;;;;4994390;28;92132;-59
2023/07/06 07:32:41;;;;;;;2.33;1.40;;;26.70;48.10;;;;;;4979817;28;94086;-59
2023/07/06 07:35:11;;;;;;;5.20;2.27;;;26.70;48.10;;;;;;4997740;28;96061;-59
2023/07/06 07:37:39;;;;;;;3.00;1.90;;;26.70;48.10;;;;;;5000839;28;92012;-60
2023/07/06 07:40:15;;;;;;;3.70;1.80;;;26.70;48.10;;;;;;4990343;28;92099;-58
2023/07/06 07:42:46;;;;;;;2.87;2.00;;;26.70;48.10;;;;;;4982041;28;93861;-59
2023/07/06 07:45:18;;;;;;;7.10;2.60;;;26.70;48.10;;;;;;4994919;28;93964;-58
2023/07/06 07:47:47;;;;;;;2.37;1.67;;;26.70;48.10;;;;;;4986136;28;92157;-59
2023/07/06 07:50:17;;;;;;;3.57;2.10;;;26.70;48.10;;;;;;4987593;28;93482;-57
2023/07/06 07:52:45;;;;;;;4.80;2.57;;;26.70;48.10;;;;;;4994057;28;94085;-57
2023/07/06 07:55:14;;;;;;;5.33;2.47;;;26.70;48.10;;;;;;4986364;28;94024;-58
2023/07/06 07:57:42;;;;;;;5.37;2.20;;;26.70;48.10;;;;;;4994905;28;92958;-57
2023/07/06 08:00:11;;;;;;;6.03;2.37;;;26.70;48.10;;;;;;4996871;28;91891;-57
2023/07/06 08:02:40;;;;;;;5.03;2.50;;;26.70;48.10;;;;;;4979477;28;93055;-57
2023/07/06 08:05:09;;;;;;;3.37;2.20;;;26.60;48.10;;;;;;4982147;28;92813;-57
2023/07/06 08:07:38;;;;;;;6.93;2.83;;;26.60;48.10;;;;;;4980692;28;92655;-57
2023/07/06 08:10:07;;;;;;;4.90;2.43;;;26.60;48.10;;;;;;4982322;28;92155;-54
2023/07/06 08:12:36;;;;;;;6.10;2.37;;;26.60;48.10;;;;;;4996430;28;94064;-54
2023/07/06 08:15:04;;;;;;;3.80;2.43;;;26.70;48.20;;;;;;4994900;28;93033;-54
2023/07/06 08:17:32;;;;;;;4.80;2.73;;;26.70;48.10;;;;;;4985190;28;92244;-54
2023/07/06 08:20:06;;;;;;;5.43;3.07;;;26.70;48.10;;;;;;4988991;28;92191;-54
2023/07/06 08:22:54;;;;;;;5.83;2.67;;;26.70;48.20;;;;;;4989842;28;93840;-54
2023/07/06 08:25:25;;;;;;;4.47;3.10;;;;;;;;;;4979520;28;94119;-54
2023/07/06 08:27:54;;;;;;;5.87;3.33;;;26.70;47.70;;;;;;4981255;28;91972;-54
2023/07/06 08:30:22;;;;;;;4.13;2.90;;;26.70;48.30;;;;;;4979881;28;92046;-51
2023/07/06 08:32:50;;;;;;;5.47;3.53;;;26.70;48.30;;;;;;4982474;28;94193;-52
2023/07/06 08:35:20;;;;;;;6.53;3.90;;;26.70;48.40;;;;;;4995402;28;94062;-54
2023/07/06 08:37:49;;;;;;;24.63;17.70;;;26.80;48.40;;;;;;4998951;28;92339;-54
2023/07/06 08:40:26;;;;;;;44.43;30.50;;;26.80;48.50;;;;;;4990311;28;91334;-54
2023/07/06 08:42:56;;;;;;;23.00;16.33;;;26.90;48.70;;;;;;4978562;28;93113;-55
2023/07/06 08:45:27;;;;;;;16.50;12.20;;;26.90;48.70;;;;;;4985766;28;93069;-53
2023/07/06 08:47:56;;;;;;;13.77;9.40;;;27.00;48.70;;;;;;4978207;28;93338;-53
2023/07/06 08:50:29;;;;;;;10.43;8.37;;;27.00;48.80;;;;;;4983678;28;92065;-56
2023/07/06 08:52:58;;;;;;;10.27;6.27;;;27.00;48.80;;;;;;4989414;28;92900;-54
2023/07/06 08:55:26;;;;;;;12.37;5.60;;;27.00;48.80;;;;;;4990436;28;92783;-53
2023/07/06 08:57:55;;;;;;;5.77;3.63;;;27.00;48.80;;;;;;4987307;28;92043;-54
2023/07/06 09:00:25;;;;;;;6.53;4.17;;;27.00;48.80;;;;;;4978925;28;92057;-55
2023/07/06 09:02:54;;;;;;;5.70;4.03;;;27.20;48.90;;;;;;4985948;28;93100;-54
2023/07/06 09:05:23;;;;;;;5.30;3.90;;;27.00;48.90;;;;;;4984122;28;94135;-54
2023/07/06 09:07:53;;;;;;;6.00;3.63;;;27.00;48.90;;;;;;4993984;28;91859;-55
2023/07/06 09:10:23;;;;;;;9.00;3.73;;;27.00;49.10;;;;;;4997741;28;91936;-55
2023/07/06 09:12:53;;;;;;;4.80;3.70;;;27.00;49.10;;;;;;4997813;28;94346;-55
2023/07/06 09:15:26;;;;;;;5.50;3.40;;;27.00;49.10;;;;;;4994046;28;94984;-54
2023/07/06 09:17:57;;;;;;;4.23;3.30;;;27.00;49.10;;;;;;4992668;28;92044;-54
2023/07/06 09:20:25;;;;;;;8.53;3.23;;;27.00;49.10;;;;;;4985259;28;92178;-55
2023/07/06 09:22:55;;;;;;;6.37;3.90;;;27.00;49.10;;;;;;4988351;28;93667;-54
2023/07/06 09:25:27;;;;;;;4.90;2.67;;;27.00;49.20;;;;;;4983045;28;93843;-54
2023/07/06 09:27:57;;;;;;;3.60;3.00;;;26.90;49.00;;;;;;4992375;28;94619;-54
2023/07/06 09:30:30;;;;;;;6.27;3.80;;;26.90;49.00;;;;;;4985639;28;91564;-54
2023/07/06 09:33:06;;;;;;;5.30;3.37;;;26.90;49.00;;;;;;4979105;28;95721;-54
2023/07/06 09:35:36;;;;;;;4.30;2.80;;;26.90;49.00;;;;;;4986018;28;92672;-55
2023/07/06 09:38:07;;;;;;;3.47;2.20;;;26.80;48.80;;;;;;4989920;28;94436;-55
2023/07/06 09:40:35;;;;;;;2.73;1.87;;;26.80;48.80;;;;;;4987150;28;92605;-55
2023/07/06 09:43:04;;;;;;;3.00;2.27;;;26.80;48.60;;;;;;4979772;28;92743;-54
2023/07/06 09:45:32;;;;;;;3.53;1.80;;;26.80;48.50;;;;;;4991142;28;94109;-54
2023/07/06 09:48:03;;;;;;;3.63;2.60;;;26.80;48.40;;;;;;4992944;28;92135;-55
2023/07/06 09:50:35;;;;;;;4.73;2.17;;;26.70;48.20;;;;;;4986216;28;92111;-55
2023/07/06 09:53:05;;;;;;;4.13;2.67;;;26.30;47.80;;;;;;4984966;28;93131;-54
2023/07/06 09:55:35;;;;;;;3.63;1.90;;;26.70;48.00;;;;;;4985546;28;93787;-55
2023/07/06 09:58:03;;;;;;;3.67;2.07;;;26.70;47.90;;;;;;4990312;28;93613;-55
2023/07/06 10:00:34;;;;;;;3.90;2.27;;;26.80;47.80;;;;;;4979343;28;92579;-55
2023/07/06 10:03:19;;;;;;;3.53;2.80;;;26.70;47.60;;;;;;4981274;28;95091;-55
2023/07/06 10:05:51;;;;;;;4.40;2.47;;;26.80;47.50;;;;;;4989394;28;94867;-56
2023/07/06 10:08:24;;;;;;;2.60;1.90;;;26.80;47.30;;;;;;4985597;28;92539;-54
2023/07/06 10:11:01;;;;;;;3.63;2.70;;;26.70;47.10;;;;;;4984352;28;94195;-54
2023/07/06 10:13:35;;;;;;;5.17;2.90;;;26.50;46.80;;;;;;4983959;28;93225;-54
2023/07/06 10:16:15;;;;;;;2.47;1.83;;;26.80;46.70;;;;;;4984069;28;93015;-55
2023/07/06 10:18:49;;;;;;;4.47;2.80;;;26.70;46.60;;;;;;4984921;28;93008;-55
2023/07/06 10:21:22;;;;;;;2.93;2.20;;;26.70;46.50;;;;;;4987515;28;91333;-54
2023/07/06 10:23:55;;;;;;;5.13;2.63;;;26.80;46.40;;;;;;4984068;28;94308;-55
2023/07/06 10:26:28;;;;;;;5.13;2.53;;;26.80;46.30;;;;;;4986431;28;94060;-54
2023/07/06 10:29:00;;;;;;;3.33;2.33;;;26.80;46.20;;;;;;4989427;28;93145;-54
2023/07/06 10:31:31;;;;;;;3.37;2.57;;;26.80;46.10;;;;;;4987402;28;94214;-55
2023/07/06 10:34:04;;;;;;;7.13;3.00;;;26.80;46.00;;;;;;4986044;28;93015;-54
2023/07/06 10:36:44;;;;;;;3.83;2.93;;;27.10;46.10;;;;;;4979402;28;93562;-55
2023/07/06 10:39:14;;;;;;;4.13;2.63;;;26.80;46.00;;;;;;4985306;28;93847;-54
2023/07/06 10:41:49;;;;;;;2.27;1.87;;;26.80;45.80;;;;;;4983140;28;92141;-54
2023/07/06 10:44:46;;;;;;;2.97;1.93;;;26.70;45.70;;;;;;4988112;28;93797;-54
2023/07/06 10:47:36;;;;;;;3.37;2.37;;;26.70;45.60;;;;;;4977800;28;93285;-54
2023/07/06 10:50:25;;;;;;;6.30;2.47;;;26.70;45.60;;;;;;4993570;28;92072;-55
2023/07/06 10:53:17;;;;;;;4.33;2.43;;;26.70;45.50;;;;;;4993221;28;92045;-56
2023/07/06 10:55:58;;;;;;;4.73;2.90;;;26.70;45.60;;;;;;4988128;28;93902;-55
2023/07/06 10:58:33;;;;;;;5.90;2.53;;;26.80;45.50;;;;;;4975699;28;93795;-54
2023/07/06 11:01:05;;;;;;;3.70;1.93;;;26.80;45.40;;;;;;4980073;28;92239;-55
2023/07/06 11:03:34;;;;;;;1.87;1.60;;;26.80;45.30;;;;;;4989851;28;92112;-54
2023/07/06 11:06:06;;;;;;;3.13;2.10;;;26.80;45.30;;;;;;4982858;28;93984;-55
2023/07/06 11:09:10;;;;;;;3.67;1.93;;;26.80;45.20;;;;;;4983819;28;93064;-55
2023/07/06 11:11:41;;;;;;;3.40;2.10;;;26.80;45.20;;;;;;4984009;28;93297;-55
2023/07/06 11:14:30;;;;;;;4.53;2.60;;;26.80;45.10;;;;;;4986505;28;91368;-55
2023/07/06 11:17:03;;;;;;;4.13;2.10;;;26.80;45.20;;;;;;4992619;28;92993;-54
2023/07/06 11:19:33;;;;;;;5.00;2.30;;;26.80;45.10;;;;;;4983600;28;92674;-55
2023/07/06 11:22:05;;;;;;;5.50;2.67;;;26.80;45.10;;;;;;4994825;28;93376;-55
2023/07/06 11:24:40;;;;;;;4.87;2.57;;;26.90;45.20;;;;;;4991330;28;92156;-55
2023/07/06 11:27:29;;;;;;;3.33;2.53;;;26.90;45.20;;;;;;4983002;28;93162;-54
2023/07/06 11:30:06;;;;;;;4.40;2.23;;;26.90;45.20;;;;;;4991014;28;92884;-55
2023/07/06 11:32:41;;;;;;;3.93;2.43;;;27.00;45.30;;;;;;4985777;28;92503;-55
2023/07/06 11:35:25;;;;;;;4.17;2.70;;;27.00;45.30;;;;;;4994162;28;92023;-55
2023/07/06 11:38:00;;;;;;;3.50;1.90;;;27.00;45.30;;;;;;4994977;28;92591;-55
2023/07/06 11:40:44;;;;;;;4.53;2.40;;;27.00;45.30;;;;;;4997618;28;94026;-54
2023/07/06 11:43:26;;;;;;;4.57;2.60;;;27.10;45.50;;;;;;4997139;28;92059;-55
2023/07/06 11:46:00;;;;;;;7.93;2.93;;;27.10;45.50;;;;;;4997212;28;92181;-55
2023/07/06 11:48:35;;;;;;;4.57;2.23;;;27.10;45.50;;;;;;4996436;28;94573;-54
2023/07/06 11:51:06;;;;;;;4.93;2.10;;;27.10;45.50;;;;;;4997116;28;94640;-54
2023/07/06 11:53:54;;;;;;;2.27;1.87;;;27.10;45.50;;;;;;4997464;28;91966;-55
2023/07/06 11:56:32;;;;;;;5.23;2.60;;;27.10;45.50;;;;;;4997069;28;92730;-55
2023/07/06 11:59:04;;;;;;;5.00;2.07;;;27.10;45.50;;;;;;4997054;28;93122;-55
2023/07/06 12:01:42;;;;;;;6.13;2.10;;;27.10;45.40;;;;;;4996682;28;92796;-55
2023/07/06 12:04:14;;;;;;;5.70;2.23;;;27.10;45.40;;;;;;4997636;28;92176;-55
2023/07/06 12:06:43;;;;;;;5.47;2.50;;;27.10;45.30;;;;;;4997722;28;91518;-54
2023/07/06 12:09:17;;;;;;;4.97;2.57;;;27.20;45.50;;;;;;4996894;28;93349;-55
2023/07/06 12:11:46;;;;;;;2.53;1.80;;;27.10;45.40;;;;;;4996950;28;92745;-55
2023/07/06 12:14:20;;;;;;;7.97;2.97;;;27.20;45.50;;;;;;4996227;28;93458;-55
2023/07/06 12:16:51;;;;;;;3.70;1.87;;;27.20;45.50;;;;;;4996799;28;92098;-55
2023/07/06 12:19:20;;;;;;;3.37;2.10;;;27.30;45.50;;;;;;4996920;28;93208;-55
2023/07/06 12:21:51;;;;;;;4.10;1.70;;;27.20;45.50;;;;;;4994211;28;93827;-54
2023/07/06 12:24:21;;;;;;;3.63;1.63;;;27.20;45.50;;;;;;4995023;28;92137;-55
2023/07/06 12:26:51;;;;;;;2.77;1.80;;;27.20;45.50;;;;;;4999647;28;91996;-54
2023/07/06 12:29:23;;;;;;;3.00;2.03;;;27.30;45.50;;;;;;4999374;28;93455;-54
2023/07/06 12:31:53;;;;;;;6.17;2.10;;;27.20;45.40;;;;;;4999520;28;91830;-55
2023/07/06 12:34:25;;;;;;;3.50;2.00;;;27.20;45.30;;;;;;4999872;28;91969;-55
2023/07/06 12:36:55;;;;;;;4.43;2.03;;;27.20;45.30;;;;;;4999618;28;91939;-54
2023/07/06 12:39:24;;;;;;;2.90;1.60;;;27.20;45.30;;;;;;4998427;28;93999;-56
2023/07/06 12:41:53;;;;;;;5.27;2.00;;;27.20;45.30;;;;;;4998792;28;95295;-55
2023/07/06 12:44:24;;;;;;;5.30;2.73;;;27.20;45.30;;;;;;4999594;28;91977;-54
2023/07/06 12:47:01;;;;;;;2.63;2.20;;;27.20;45.30;;;;;;4999257;28;92005;-55
2023/07/06 12:49:33;;;;;;;2.97;1.67;;;27.20;45.20;;;;;;4998691;28;91922;-54
2023/07/06 12:52:07;;;;;;;3.07;1.60;;;27.30;45.30;;;;;;4999160;28;92729;-55
2023/07/06 12:54:36;;;;;;;2.97;2.00;;;27.30;45.30;;;;;;4999512;28;91808;-55
2023/07/06 12:57:06;;;;;;;4.87;2.07;;;27.30;45.30;;;;;;4999501;28;91258;-55
2023/07/06 12:59:35;;;;;;;3.23;1.90;;;27.30;45.30;;;;;;4998642;28;93375;-55
2023/07/06 13:02:16;;;;;;;3.27;2.17;;;27.30;45.20;;;;;;4998978;28;93174;-55
2023/07/06 13:04:47;;;;;;;4.67;1.80;;;27.30;45.20;;;;;;4998873;28;92767;-55
2023/07/06 13:07:16;;;;;;;4.57;2.50;;;27.30;45.20;;;;;;4999828;28;92026;-55